Terminal Aerodrome Forecast
Issued by NWS Mt. Holly, NJ

Home | Current Version | Previous Version | Text Only | Print | Product List | Glossary On
Versions: 1 2 3 4 5 6 7 8 9 10 11 12 13 14 15 16 17 18 19 20 21 22 23 24 25 26 27 28 29 30 31 32 33 34 35 36 37
000
FTUS41 KPHI 221130
TAFABE
TAF
KABE 221130Z 2212/2312 00000KT P6SM FEW250
     FM221800 23006KT P6SM FEW040 SCT250
     FM230700 00000KT P6SM SCT110 BKN250 PROB30 2309/2312 2SM TSRA
      BKN050CB BKN110 BKN120=

USA.gov is the U.S. government's official web portal to all federal, state and local government web resources and services.